createdAt,value
2022-12-26T00:01:37.989Z,100542.63
2022-12-26T00:06:41.873Z,100531.13
2022-12-26T00:11:43.955Z,100532.78
2022-12-26T00:16:47.796Z,100508.03
2022-12-26T00:21:51.137Z,100508.03
2022-12-26T00:26:53.371Z,100515.03
2022-12-26T00:31:55.442Z,100507.97
2022-12-26T00:36:58.811Z,100507.06
2022-12-26T00:42:01.005Z,100496.47
2022-12-26T00:47:03.656Z,100507.91
2022-12-26T00:52:07.539Z,100490.25
2022-12-26T00:57:09.726Z,100480.50
2022-12-26T01:02:12.359Z,100485.78
2022-12-26T01:07:22.112Z,100481.34
2022-12-26T01:12:24.524Z,100480.50
2022-12-26T01:17:28.460Z,100466.47
2022-12-26T01:22:31.850Z,100480.53
2022-12-26T01:27:34.196Z,100494.56
2022-12-26T01:32:36.177Z,100490.22
2022-12-26T01:37:39.578Z,100466.38
2022-12-26T01:42:41.946Z,100446.03
2022-12-26T01:47:49.607Z,100461.09
2022-12-26T01:53:14.354Z,100466.38
2022-12-26T01:58:27.648Z,100483.97
2022-12-26T02:03:29.981Z,100469.69
2022-12-26T02:08:36.256Z,100470.53
2022-12-26T02:13:39.442Z,100465.09
2022-12-26T02:18:42.057Z,100456.19
2022-12-26T02:24:16.456Z,100443.84
2022-12-26T02:29:59.926Z,100452.63
2022-12-26T02:35:10.361Z,100452.56
2022-12-26T02:40:30.578Z,100444.59
2022-12-26T02:45:39.043Z,100443.66
2022-12-26T02:51:02.756Z,100442.88
2022-12-26T02:56:14.295Z,100460.47
2022-12-26T03:01:26.395Z,100464.00
2022-12-26T03:06:32.490Z,100465.69
2022-12-26T03:11:39.447Z,100460.44
2022-12-26T03:16:42.789Z,100475.34
2022-12-26T03:21:47.445Z,100452.31
2022-12-26T03:26:54.544Z,100474.34
2022-12-26T03:31:57.647Z,100473.44
2022-12-26T03:37:23.588Z,100475.28
2022-12-26T03:42:34.783Z,100477.00
2022-12-26T03:47:42.647Z,100462.88
2022-12-26T03:52:54.197Z,100472.63
2022-12-26T03:58:03.215Z,100484.97
2022-12-26T04:03:08.992Z,100484.09
2022-12-26T04:08:19.026Z,100499.16
2022-12-26T04:13:25.099Z,100504.44
2022-12-26T04:18:33.971Z,100485.88
2022-12-26T04:23:42.861Z,100488.56
2022-12-26T04:28:44.847Z,100501.69
2022-12-26T04:33:53.079Z,100497.28
2022-12-26T04:39:01.774Z,100501.72
2022-12-26T04:44:06.308Z,100491.97
2022-12-26T04:49:10.300Z,100492.94
2022-12-26T04:54:14.190Z,100495.66
2022-12-26T04:59:17.642Z,100491.97
2022-12-26T05:04:20.039Z,100518.44
2022-12-26T05:09:23.551Z,100513.97
2022-12-26T05:14:25.626Z,100534.28
2022-12-26T05:19:27.331Z,100520.16
2022-12-26T05:24:35.234Z,100532.44
2022-12-26T05:29:37.460Z,100532.34
2022-12-26T05:34:39.243Z,100538.50
2022-12-26T05:39:42.977Z,100542.06
2022-12-26T05:44:45.521Z,100537.63
2022-12-26T05:49:47.720Z,100548.25
2022-12-26T05:54:51.416Z,100535.88
2022-12-26T05:59:53.776Z,100529.84
2022-12-26T06:04:55.456Z,100545.75
2022-12-26T06:09:59.747Z,100536.06
2022-12-26T06:15:01.741Z,100526.38
2022-12-26T06:20:04.762Z,100527.38
2022-12-26T06:25:09.393Z,100527.38
2022-12-26T06:30:11.719Z,100546.13
2022-12-26T06:35:13.524Z,100577.88
2022-12-26T06:40:16.801Z,100577.06
2022-12-26T06:45:18.795Z,100582.47
2022-12-26T06:50:20.917Z,100589.59
2022-12-26T06:55:24.214Z,100585.06
2022-12-26T07:00:25.980Z,100592.03
2022-12-26T07:05:27.918Z,100594.66
2022-12-26T07:10:35.418Z,100597.34
2022-12-26T07:15:37.310Z,100614.19
2022-12-26T07:20:39.417Z,100604.47
2022-12-26T07:25:43.090Z,100608.06
2022-12-26T07:30:47.225Z,100612.50
2022-12-26T07:35:49.465Z,100594.00
2022-12-26T07:40:55.268Z,100596.59
2022-12-26T07:45:58.396Z,100615.94
2022-12-26T07:51:02.504Z,100631.81
2022-12-26T07:56:07.562Z,100627.25
2022-12-26T08:01:10.427Z,100637.78
2022-12-26T08:06:13.694Z,100637.75
2022-12-26T08:11:18.664Z,100635.97
2022-12-26T08:16:20.803Z,100639.50
2022-12-26T08:21:23.051Z,100622.72
2022-12-26T08:26:26.576Z,100630.66
2022-12-26T08:31:28.663Z,100631.63
2022-12-26T08:36:30.484Z,100624.53
2022-12-26T08:41:33.701Z,100635.19
2022-12-26T08:46:37.143Z,100642.28
2022-12-26T08:51:39.712Z,100625.53
2022-12-26T08:56:42.964Z,100637.00
2022-12-26T09:01:44.796Z,100647.53
2022-12-26T09:06:46.702Z,100665.16
2022-12-26T09:11:49.786Z,100673.06
2022-12-26T09:16:52.326Z,100673.94
2022-12-26T09:21:54.135Z,100668.56
2022-12-26T09:26:57.216Z,100664.97
2022-12-26T09:31:58.932Z,100693.16
2022-12-26T09:37:00.982Z,100682.50
2022-12-26T09:42:14.811Z,100674.47
2022-12-26T09:47:32.218Z,100677.00
2022-12-26T09:52:48.570Z,100677.63
2022-12-26T09:57:53.630Z,100677.59
2022-12-26T10:02:59.358Z,100694.38
2022-12-26T10:08:12.816Z,100694.34
2022-12-26T10:13:24.640Z,100696.06
2022-12-26T10:18:39.454Z,100701.28
2022-12-26T10:23:44.872Z,100707.56
2022-12-26T10:28:54.004Z,100712.84
2022-12-26T10:34:03.242Z,100709.41
2022-12-26T10:39:11.788Z,100702.44
2022-12-26T10:44:16.090Z,100693.66
2022-12-26T10:49:22.521Z,100696.38
2022-12-26T10:54:24.652Z,100684.09
2022-12-26T10:59:37.091Z,100685.03
2022-12-26T11:05:11.621Z,100691.19
2022-12-26T11:10:02.793Z,100695.69
2022-12-26T11:15:17.619Z,100701.03
2022-12-26T11:20:29.269Z,100696.66
2022-12-26T11:25:30.992Z,100690.50
2022-12-26T11:30:38.402Z,100668.47
2022-12-26T11:35:48.565Z,100673.75
2022-12-26T11:40:50.925Z,100698.53
2022-12-26T11:45:54.636Z,100703.75
2022-12-26T11:50:56.418Z,100709.06
2022-12-26T11:56:00.663Z,100696.66
2022-12-26T12:01:08.087Z,100704.63
2022-12-26T12:06:41.218Z,100707.31
2022-12-26T12:11:48.822Z,100694.03
2022-12-26T12:17:04.500Z,100685.31
2022-12-26T12:22:32.488Z,100686.25
2022-12-26T12:27:39.970Z,100670.38
2022-12-26T12:32:57.540Z,100650.06
2022-12-26T12:38:19.044Z,100657.91
2022-12-26T12:43:31.767Z,100679.97
2022-12-26T12:48:52.718Z,100672.88
2022-12-26T12:54:24.824Z,100679.88
2022-12-26T12:59:38.045Z,100682.53
2022-12-26T13:04:47.754Z,100671.81
2022-12-26T13:09:54.325Z,100671.84
2022-12-26T13:15:00.744Z,100682.44
2022-12-26T13:20:13.502Z,100672.72
2022-12-26T13:25:16.574Z,100668.31
2022-12-26T13:30:19.079Z,100686.84
2022-12-26T13:36:03.448Z,100687.00
2022-12-26T13:41:07.507Z,100674.66
2022-12-26T13:46:35.242Z,100688.91
2022-12-26T13:51:59.344Z,100696.03
2022-12-26T13:57:28.378Z,100703.22
2022-12-26T14:08:33.689Z,100694.66
2022-12-26T14:14:02.013Z,100699.06
2022-12-26T14:19:12.431Z,100709.63
2022-12-26T14:24:25.951Z,100713.34
2022-12-26T14:29:38.514Z,100712.50
2022-12-26T14:34:57.041Z,100708.16
2022-12-26T14:40:27.294Z,100706.50
2022-12-26T14:45:46.597Z,100703.91
2022-12-26T14:50:50.817Z,100701.28
2022-12-26T14:55:55.643Z,100707.41
2022-12-26T15:01:37.695Z,100711.78
2022-12-26T15:07:05.150Z,100703.91
2022-12-26T15:12:44.137Z,100722.34
2022-12-26T15:18:03.224Z,100715.25
2022-12-26T15:23:33.360Z,100696.72
2022-12-26T15:28:56.342Z,100679.03
2022-12-26T15:34:07.424Z,100682.53
2022-12-26T15:39:21.952Z,100699.38
2022-12-26T15:44:32.966Z,100698.56
2022-12-26T15:49:59.390Z,100695.97
2022-12-26T15:55:18.317Z,100699.56
2022-12-26T16:00:22.446Z,100699.59
2022-12-26T16:05:34.997Z,100693.38
2022-12-26T16:10:37.354Z,100692.41
2022-12-26T16:15:47.353Z,100697.75
2022-12-26T16:20:52.678Z,100702.19
2022-12-26T16:25:57.433Z,100706.56
2022-12-26T16:30:59.785Z,100710.06
2022-12-26T16:36:03.422Z,100709.16
2022-12-26T16:41:19.364Z,100720.66
2022-12-26T16:46:23.423Z,100718.91
2022-12-26T16:51:38.859Z,100739.22
2022-12-26T16:56:41.176Z,100738.28
2022-12-26T17:01:48.766Z,100763.91
2022-12-26T17:06:54.983Z,100766.56
2022-12-26T17:11:59.334Z,100769.25
2022-12-26T17:17:05.288Z,100789.56
2022-12-26T17:22:26.958Z,100778.09
2022-12-26T17:27:29.195Z,100789.59
2022-12-26T17:32:35.064Z,100787.84
2022-12-26T17:37:38.329Z,100799.38
2022-12-26T17:42:47.044Z,100796.75
2022-12-26T17:47:51.059Z,100800.28
2022-12-26T17:52:54.606Z,100804.75
2022-12-26T17:57:56.874Z,100819.75
2022-12-26T18:02:58.652Z,100834.75
2022-12-26T18:08:02.710Z,100834.72
2022-12-26T18:13:10.094Z,100833.84
2022-12-26T18:18:22.611Z,100841.78
2022-12-26T18:23:26.242Z,100832.09
2022-12-26T18:28:29.447Z,100835.66
2022-12-26T18:33:32.714Z,100845.31
2022-12-26T18:38:36.555Z,100847.94
2022-12-26T18:43:38.335Z,100842.66
2022-12-26T18:48:40.142Z,100861.13
2022-12-26T18:53:43.624Z,100865.53
2022-12-26T18:58:45.833Z,100869.94
2022-12-26T19:03:47.643Z,100887.53
2022-12-26T19:08:50.827Z,100898.09
2022-12-26T19:13:52.664Z,100906.00
2022-12-26T19:18:54.632Z,100906.91
2022-12-26T19:23:58.218Z,100924.50
2022-12-26T19:29:00.047Z,100920.09
2022-12-26T19:34:02.026Z,100935.91
2022-12-26T19:39:05.861Z,100952.56
2022-12-26T19:44:08.138Z,100943.66
2022-12-26T19:49:09.821Z,100955.00
2022-12-26T19:54:12.953Z,100969.94
2022-12-26T19:59:15.304Z,100985.72
2022-12-26T20:04:17.248Z,100994.50
2022-12-26T20:09:20.552Z,101005.00
2022-12-26T20:14:24.920Z,101004.06
2022-12-26T20:19:28.326Z,101015.47
2022-12-26T20:24:31.473Z,101011.88
2022-12-26T20:29:33.178Z,101010.91
2022-12-26T20:34:35.335Z,101034.63
2022-12-26T20:39:38.476Z,101045.94
2022-12-26T20:44:40.364Z,101058.28
2022-12-26T20:49:42.703Z,101054.53
2022-12-26T20:54:45.987Z,101071.25
2022-12-26T20:59:48.204Z,101068.66
2022-12-26T21:04:50.396Z,101073.03
2022-12-26T21:09:53.691Z,101072.06
2022-12-26T21:14:55.927Z,101086.06
2022-12-26T21:19:57.980Z,101107.81
2022-12-26T21:25:01.665Z,101113.72
2022-12-26T21:30:04.494Z,101116.19
2022-12-26T21:35:06.600Z,101130.00
2022-12-26T21:40:11.182Z,101137.00
2022-12-26T21:45:13.519Z,101146.69
2022-12-26T21:50:15.491Z,101153.84
2022-12-26T21:55:18.737Z,101160.81
2022-12-26T22:00:20.748Z,101167.66
2022-12-26T22:05:26.271Z,101174.59
2022-12-26T22:10:32.249Z,101183.41
2022-12-26T22:15:34.624Z,101207.09
2022-12-26T22:20:36.736Z,101207.78
2022-12-26T22:25:39.970Z,101213.81
2022-12-26T22:30:46.472Z,101236.72
2022-12-26T22:35:48.825Z,101239.28
2022-12-26T22:40:57.750Z,101254.28
2022-12-26T22:45:59.726Z,101257.66
2022-12-26T22:51:02.105Z,101254.06
2022-12-26T22:56:06.669Z,101271.59
2022-12-26T23:01:13.755Z,101276.63
2022-12-26T23:06:18.934Z,101276.78
2022-12-26T23:11:26.251Z,101281.91
2022-12-26T23:16:36.298Z,101270.34
2022-12-26T23:21:40.456Z,101295.59
2022-12-26T23:26:46.346Z,101285.78
2022-12-26T23:31:48.766Z,101290.25
2022-12-26T23:36:50.736Z,101300.69
2022-12-26T23:41:54.240Z,101298.78
2022-12-26T23:46:56.406Z,101300.28
2022-12-26T23:51:59.275Z,101300.03
2022-12-26T23:57:03.064Z,101313.91
